Detall de PIREP

Printer-friendly versionPDF version

[2014/10/18 16:01:00]
Flight IATA:CT2215
Pilot Number:044
Company ICAO:CAT
Aircraft Type:B463/A
PAX:95
Aircraft Registration:PAX
Departing Airport: LFRS
Destination Airport: LFMP
Alternate Airport:LFBO
Online: VATSIM
Route:LUGEN UM616 TUPAR UM184 CNA UN863 SECHE UT24 GAI UP84 ORBIL
Flight Level:F330
No Slew and time accel
No pause
Crash detect
Detect pilot in Cockpit between each 30 and 45 minutes
16:01 Zero fuel Weight: 75541 Lbs, Fuel Weight: 11183 Lbs
16:01 VATSIM:LFRS 181530Z 18008KT CAVOK 25/16 Q1015 NOSIG
16:01 VATSIM:LFMP 181530Z 08007KT 9999 FEW016 BKN030 22/19 Q1020 NOSIG
16:02 Parking Brakes off
16:10 Take-off
16:10 Take off Weight: 86252 Lbs
16:10 Wind: 175º @ 006 Knots Heading: 205º
16:10 POS N47º 08´ 52´´ W001º 36´ 52´´
16:10 Flaps:1 at 157 Knots
16:10 Gear Up: 154 Knots
16:12 Flaps:0 at 136 Knots
16:25 Wind:173º@023 Knots Heading: 156º Ground Speed: 327 Knots Altitude 29940 ft
16:27 TOC
16:27 Fuel Weight: 8389 Lb
16:40 Wind:131º@018 Knots Heading: 154º Ground Speed: 370 Knots Altitude 33106 ft
16:50 TOD
16:50 Fuel Weight: 6586 Lb
16:55 Wind:125º@049 Knots Heading: 120º Ground Speed: 316 Knots Altitude 24153 ft
17:10 Wind:109º@009 Knots Heading: 122º Ground Speed: 217 Knots Altitude 3497 ft
17:21 Flaps:1 at 163 Knots
17:21 Flaps:2 at 173 Knots
17:22 Flaps:3 at 181 Knots
17:22 Gear Down: 178 Knots
17:24 Flaps:4 at 150 Knots
17:24 TouchDown:Rate -203 ft/min Speed: 116 Knots
17:25 Wind:102º@003 Knots Heading: 328º Ground Speed: 106 Knots Altitude 150 ft
17:25 VATSIM:LFMP 181700Z 10003KT 9999 FEW016 BKN033 21/18 Q1020 NOSIG
17:25 Land
17:25 Wind:102º@003 Knots
17:25 Heading: 329º
17:25 Flight Duration: 01:15
17:25 Landing Weight: 80607 Lbs
17:25 POS N42º 45´ 09´´ E002º 51´ 45´´
17:28 Parking brakes on
17:28 Block to Block Duration: 01:26
17:28 Final Fuel: 4929 Lbls
17:28 Spent Fuel: 6254 Lbls
17:28 Flight Length: 368 NM
17:28 TOD Land Length: 143 NM

Exportar CSV

Powered by Drupal - Modified by Danger4k